Lester, Pennsylvania
Current Conditions -  °F | °C
As of 10:54 AM on Friday 28 Nov 2014 (Local Time) from KPHL Reporting Station
Broken Clouds Broken Clouds  
Wind Chill: 31°   Ceiling: 4500
Heat Index: 39°   Visibility: 10mi
Dew Point: 19°   Wind: 15mph
Humidity: 45%   Direction: 330°NNW
Pressure: 30.25"   Gusts: 25mph
Location:  39.867°N, 75.284°W
Report Text: KPHL 281554Z 33013G22KT 10SM BKN045 04/M07 A3025 RMK AO2 SLP242 T00391072 $
Loading
Personal Weather Stations






























Interactive Weather Map New forecast layout! Learn more

10-Day Weather Forecast

Advertisements
Track Severe Weather on mobile